This demonstration page uses our WeatherBlox Daily Observations layout. Learn more.

39.29038, -76.61219

Hourly Observations for April 16, 2016

Temp ( °F °C ) Dew Point ( °F °C ) Humidity (%) Winds ( mph kmh ) Pressure ( in mb ) Visibility ( mi km ) Precip ( " mm )
12:54 am 00:54 undefined 52 11.1 37 2.8 57 57 undefined N/A 30.41 1030 N/A 0 0
1:54 am 01:54 undefined 51 10.6 34 1.1 52 52 undefined N/A 30.4 1030 N/A 0 0
2:54 am 02:54 undefined 49 9.4 33 0.6 55 55 undefined N/A 30.4 1029 N/A 0 0
3:54 am 03:54 undefined 49 9.4 35 1.7 59 59 undefined N/A 30.39 1029 N/A 0 0
4:54 am 04:54 undefined 48 8.9 35 1.7 61 61 undefined N/A 30.38 1029 N/A 0 0
5:54 am 05:54 undefined 47 8.3 35 1.7 63 63 undefined N/A 30.39 1029 N/A 0 0
6:54 am 06:54 undefined 49 9.4 33 0.6 55 55 undefined N/A 30.4 1030 N/A 0 0
7:54 am 07:54 undefined 51 10.6 34 1.1 52 52 undefined N/A 30.42 1030 N/A 0 0
8:54 am 08:54 undefined 56 13.3 33 0.6 42 42 undefined N/A 30.42 1030 N/A 0 0
9:54 am 09:54 undefined 60 15.6 34 1.1 38 38 undefined N/A 30.43 1031 N/A 0 0
10:54 am 10:54 undefined 62 16.7 30 -1.1 30 30 undefined N/A 30.43 1031 N/A 0 0
11:54 am 11:54 undefined 64 17.8 29 -1.7 27 27 undefined N/A 30.43 1030 N/A 0 0
12:54 pm 12:54 undefined 62 16.7 35 1.7 37 37 undefined N/A 30.43 1031 N/A 0 0
1:54 pm 13:54 undefined 64 17.8 36 2.2 35 35 undefined N/A 30.41 1030 N/A 0 0
2:54 pm 14:54 undefined 64 17.8 35 1.7 34 34 undefined N/A 30.4 1029 N/A 0 0
3:54 pm 15:54 undefined 65 18.3 36 2.2 34 34 undefined N/A 30.38 1029 N/A 0 0
4:54 pm 16:54 undefined 65 18.3 35 1.7 33 33 undefined N/A 30.38 1029 N/A 0 0
5:54 pm 17:54 undefined 65 18.3 33 0.6 31 31 undefined N/A 30.39 1029 N/A 0 0
6:54 pm 18:54 undefined 64 17.8 32 0 30 30 undefined N/A 30.38 1029 N/A 0 0
7:54 pm 19:54 undefined 63 17.2 31 -0.6 30 30 undefined N/A 30.37 1029 N/A 0 0
8:54 pm 20:54 undefined 62 16.7 31 -0.6 31 31 undefined N/A 30.39 1029 N/A 0 0
9:54 pm 21:54 undefined 60 15.6 34 1.1 38 38 undefined N/A 30.4 1030 N/A 0 0
10:54 pm 22:54 undefined 58 14.4 32 0 38 38 undefined N/A 30.41 1030 N/A 0 0
11:54 pm 23:54 undefined 55 12.8 34 1.1 45 45 undefined N/A 30.42 1030 N/A 0 0

Powered by AerisWeather